sensor_id;sensor_type;location;lat;lon;timestamp;temperature;humidity
68842;SHT35;55849;48.482;2.332;2024-03-08T00:01:03;9.93;67.07
68842;SHT35;55849;48.482;2.332;2024-03-08T00:04:06;9.89;66.94
68842;SHT35;55849;48.482;2.332;2024-03-08T00:07:08;9.87;67.16
68842;SHT35;55849;48.482;2.332;2024-03-08T00:10:11;9.84;66.90
68842;SHT35;55849;48.482;2.332;2024-03-08T00:13:13;9.80;67.00
68842;SHT35;55849;48.482;2.332;2024-03-08T00:16:14;9.79;66.88
68842;SHT35;55849;48.482;2.332;2024-03-08T00:19:17;9.79;66.94
68842;SHT35;55849;48.482;2.332;2024-03-08T00:22:19;9.77;67.15
68842;SHT35;55849;48.482;2.332;2024-03-08T00:25:22;9.72;67.08
68842;SHT35;55849;48.482;2.332;2024-03-08T00:28:24;9.72;66.42
68842;SHT35;55849;48.482;2.332;2024-03-08T00:31:27;9.70;66.82
68842;SHT35;55849;48.482;2.332;2024-03-08T00:34:32;9.72;67.12
68842;SHT35;55849;48.482;2.332;2024-03-08T00:37:34;9.67;67.07
68842;SHT35;55849;48.482;2.332;2024-03-08T00:40:36;9.66;66.84
68842;SHT35;55849;48.482;2.332;2024-03-08T00:43:38;9.67;67.38
68842;SHT35;55849;48.482;2.332;2024-03-08T00:46:39;9.62;66.75
68842;SHT35;55849;48.482;2.332;2024-03-08T00:49:42;9.60;66.67
68842;SHT35;55849;48.482;2.332;2024-03-08T00:52:44;9.58;66.32
68842;SHT35;55849;48.482;2.332;2024-03-08T00:55:46;9.55;66.39
68842;SHT35;55849;48.482;2.332;2024-03-08T00:58:48;9.48;66.15
68842;SHT35;55849;48.482;2.332;2024-03-08T01:01:50;9.45;66.19
68842;SHT35;55849;48.482;2.332;2024-03-08T01:04:53;9.39;66.00
68842;SHT35;55849;48.482;2.332;2024-03-08T01:07:54;9.34;66.10
68842;SHT35;55849;48.482;2.332;2024-03-08T01:10:56;9.28;65.93
68842;SHT35;55849;48.482;2.332;2024-03-08T01:13:57;9.30;66.42
68842;SHT35;55849;48.482;2.332;2024-03-08T01:16:59;9.25;65.59
68842;SHT35;55849;48.482;2.332;2024-03-08T01:20:03;9.21;66.20
68842;SHT35;55849;48.482;2.332;2024-03-08T01:23:04;9.18;66.78
68842;SHT35;55849;48.482;2.332;2024-03-08T01:26:07;9.14;66.46
68842;SHT35;55849;48.482;2.332;2024-03-08T01:29:09;9.11;66.20
68842;SHT35;55849;48.482;2.332;2024-03-08T01:32:10;9.13;66.59
68842;SHT35;55849;48.482;2.332;2024-03-08T01:35:13;9.07;66.48
68842;SHT35;55849;48.482;2.332;2024-03-08T01:38:15;9.06;66.29
68842;SHT35;55849;48.482;2.332;2024-03-08T01:41:17;8.99;66.38
68842;SHT35;55849;48.482;2.332;2024-03-08T01:44:18;8.97;66.56
68842;SHT35;55849;48.482;2.332;2024-03-08T01:47:21;8.94;65.76
68842;SHT35;55849;48.482;2.332;2024-03-08T01:50:25;8.90;65.65
68842;SHT35;55849;48.482;2.332;2024-03-08T01:53:28;8.87;65.96
68842;SHT35;55849;48.482;2.332;2024-03-08T01:56:30;8.82;66.09
68842;SHT35;55849;48.482;2.332;2024-03-08T01:59:32;8.80;65.49
68842;SHT35;55849;48.482;2.332;2024-03-08T02:02:34;8.76;66.19
68842;SHT35;55849;48.482;2.332;2024-03-08T02:05:40;8.72;65.64
68842;SHT35;55849;48.482;2.332;2024-03-08T02:08:42;8.69;65.46
68842;SHT35;55849;48.482;2.332;2024-03-08T02:11:45;8.65;65.98
68842;SHT35;55849;48.482;2.332;2024-03-08T02:14:47;8.65;65.53
68842;SHT35;55849;48.482;2.332;2024-03-08T02:17:49;8.59;65.51
68842;SHT35;55849;48.482;2.332;2024-03-08T02:20:52;8.55;65.70
68842;SHT35;55849;48.482;2.332;2024-03-08T02:23:54;8.54;65.77
68842;SHT35;55849;48.482;2.332;2024-03-08T02:26:55;8.48;65.72
68842;SHT35;55849;48.482;2.332;2024-03-08T02:29:57;8.47;65.83
68842;SHT35;55849;48.482;2.332;2024-03-08T02:33:00;8.42;65.60
68842;SHT35;55849;48.482;2.332;2024-03-08T02:36:03;8.42;65.66
68842;SHT35;55849;48.482;2.332;2024-03-08T02:39:06;8.40;65.87
68842;SHT35;55849;48.482;2.332;2024-03-08T02:42:08;8.37;66.15
68842;SHT35;55849;48.482;2.332;2024-03-08T02:45:09;8.38;66.19
68842;SHT35;55849;48.482;2.332;2024-03-08T02:48:11;8.36;66.54
68842;SHT35;55849;48.482;2.332;2024-03-08T02:51:14;8.33;66.66
68842;SHT35;55849;48.482;2.332;2024-03-08T02:54:16;8.31;66.69
68842;SHT35;55849;48.482;2.332;2024-03-08T02:57:19;8.30;66.71
68842;SHT35;55849;48.482;2.332;2024-03-08T03:00:21;8.29;66.55
68842;SHT35;55849;48.482;2.332;2024-03-08T03:03:23;8.29;66.47
68842;SHT35;55849;48.482;2.332;2024-03-08T03:06:26;8.31;66.80
68842;SHT35;55849;48.482;2.332;2024-03-08T03:09:27;8.24;66.73
68842;SHT35;55849;48.482;2.332;2024-03-08T03:12:29;8.23;66.44
68842;SHT35;55849;48.482;2.332;2024-03-08T03:15:31;8.21;66.67
68842;SHT35;55849;48.482;2.332;2024-03-08T03:18:34;8.20;66.60
68842;SHT35;55849;48.482;2.332;2024-03-08T03:21:37;8.20;66.88
68842;SHT35;55849;48.482;2.332;2024-03-08T03:24:38;8.21;66.46
68842;SHT35;55849;48.482;2.332;2024-03-08T03:27:40;8.19;66.62
68842;SHT35;55849;48.482;2.332;2024-03-08T03:30:42;8.17;67.06
68842;SHT35;55849;48.482;2.332;2024-03-08T03:33:44;8.14;67.23
68842;SHT35;55849;48.482;2.332;2024-03-08T03:36:47;8.14;67.34
68842;SHT35;55849;48.482;2.332;2024-03-08T03:39:49;8.14;67.14
68842;SHT35;55849;48.482;2.332;2024-03-08T03:42:53;8.14;67.37
68842;SHT35;55849;48.482;2.332;2024-03-08T03:45:54;8.14;66.57
68842;SHT35;55849;48.482;2.332;2024-03-08T03:48:56;8.12;66.62
68842;SHT35;55849;48.482;2.332;2024-03-08T03:51:59;8.13;66.67
68842;SHT35;55849;48.482;2.332;2024-03-08T03:55:00;8.07;66.64
68842;SHT35;55849;48.482;2.332;2024-03-08T03:58:04;8.04;66.53
68842;SHT35;55849;48.482;2.332;2024-03-08T04:01:06;8.03;66.67
68842;SHT35;55849;48.482;2.332;2024-03-08T04:04:08;8.00;66.83
68842;SHT35;55849;48.482;2.332;2024-03-08T04:07:10;8.00;66.58
68842;SHT35;55849;48.482;2.332;2024-03-08T04:10:12;7.96;66.32
68842;SHT35;55849;48.482;2.332;2024-03-08T04:13:14;7.95;66.58
68842;SHT35;55849;48.482;2.332;2024-03-08T04:16:16;7.96;67.09
68842;SHT35;55849;48.482;2.332;2024-03-08T04:19:19;7.93;67.02
68842;SHT35;55849;48.482;2.332;2024-03-08T04:22:22;7.95;66.89
68842;SHT35;55849;48.482;2.332;2024-03-08T04:25:23;7.96;66.56
68842;SHT35;55849;48.482;2.332;2024-03-08T04:28:25;7.95;66.87
68842;SHT35;55849;48.482;2.332;2024-03-08T04:31:27;7.92;66.44
68842;SHT35;55849;48.482;2.332;2024-03-08T04:34:28;7.87;66.75
68842;SHT35;55849;48.482;2.332;2024-03-08T04:37:31;7.90;66.28
68842;SHT35;55849;48.482;2.332;2024-03-08T04:40:33;7.85;66.53
68842;SHT35;55849;48.482;2.332;2024-03-08T04:43:34;7.85;66.45
68842;SHT35;55849;48.482;2.332;2024-03-08T04:46:36;7.82;66.78
68842;SHT35;55849;48.482;2.332;2024-03-08T04:49:38;7.81;66.52
68842;SHT35;55849;48.482;2.332;2024-03-08T04:52:41;7.78;67.00
68842;SHT35;55849;48.482;2.332;2024-03-08T04:55:42;7.78;67.34
68842;SHT35;55849;48.482;2.332;2024-03-08T04:58:44;7.78;66.90
68842;SHT35;55849;48.482;2.332;2024-03-08T05:01:47;7.78;66.89
68842;SHT35;55849;48.482;2.332;2024-03-08T05:04:48;7.77;67.01
68842;SHT35;55849;48.482;2.332;2024-03-08T05:07:51;7.75;67.02
68842;SHT35;55849;48.482;2.332;2024-03-08T05:10:54;7.75;67.06
68842;SHT35;55849;48.482;2.332;2024-03-08T05:13:55;7.75;66.98
68842;SHT35;55849;48.482;2.332;2024-03-08T05:16:59;7.74;67.05
68842;SHT35;55849;48.482;2.332;2024-03-08T05:20:01;7.74;66.65
68842;SHT35;55849;48.482;2.332;2024-03-08T05:23:04;7.69;66.45
68842;SHT35;55849;48.482;2.332;2024-03-08T05:26:05;7.68;66.23
68842;SHT35;55849;48.482;2.332;2024-03-08T05:29:07;7.64;66.14
68842;SHT35;55849;48.482;2.332;2024-03-08T05:32:09;7.60;66.90
68842;SHT35;55849;48.482;2.332;2024-03-08T05:35:12;7.58;66.98
68842;SHT35;55849;48.482;2.332;2024-03-08T05:38:17;7.60;67.26
68842;SHT35;55849;48.482;2.332;2024-03-08T05:41:20;7.60;67.44
68842;SHT35;55849;48.482;2.332;2024-03-08T05:44:22;7.61;66.99
68842;SHT35;55849;48.482;2.332;2024-03-08T05:47:23;7.61;66.86
68842;SHT35;55849;48.482;2.332;2024-03-08T05:50:25;7.57;67.02
68842;SHT35;55849;48.482;2.332;2024-03-08T05:53:29;7.57;66.50
68842;SHT35;55849;48.482;2.332;2024-03-08T05:56:31;7.57;66.40
68842;SHT35;55849;48.482;2.332;2024-03-08T05:59:33;7.57;66.43
68842;SHT35;55849;48.482;2.332;2024-03-08T06:02:35;7.50;66.63
68842;SHT35;55849;48.482;2.332;2024-03-08T06:05:41;7.48;66.58
68842;SHT35;55849;48.482;2.332;2024-03-08T06:08:44;7.47;66.74
68842;SHT35;55849;48.482;2.332;2024-03-08T06:11:45;7.46;66.30
68842;SHT35;55849;48.482;2.332;2024-03-08T06:14:47;7.46;66.35
68842;SHT35;55849;48.482;2.332;2024-03-08T06:17:49;7.46;66.00
68842;SHT35;55849;48.482;2.332;2024-03-08T06:20:53;7.44;66.13
68842;SHT35;55849;48.482;2.332;2024-03-08T06:23:56;7.40;66.18
68842;SHT35;55849;48.482;2.332;2024-03-08T06:26:58;7.34;65.94
68842;SHT35;55849;48.482;2.332;2024-03-08T06:30:00;7.36;66.08
68842;SHT35;55849;48.482;2.332;2024-03-08T06:33:02;7.36;66.38
68842;SHT35;55849;48.482;2.332;2024-03-08T06:36:04;7.33;66.67
68842;SHT35;55849;48.482;2.332;2024-03-08T06:39:07;7.36;66.38
68842;SHT35;55849;48.482;2.332;2024-03-08T06:42:10;7.36;66.87
68842;SHT35;55849;48.482;2.332;2024-03-08T06:45:12;7.37;66.79
68842;SHT35;55849;48.482;2.332;2024-03-08T06:48:19;7.40;67.19
68842;SHT35;55849;48.482;2.332;2024-03-08T06:51:21;7.38;67.26
68842;SHT35;55849;48.482;2.332;2024-03-08T06:54:24;7.41;67.32
68842;SHT35;55849;48.482;2.332;2024-03-08T06:57:26;7.43;67.52
68842;SHT35;55849;48.482;2.332;2024-03-08T07:00:29;7.50;67.57
68842;SHT35;55849;48.482;2.332;2024-03-08T07:03:31;7.50;67.76
68842;SHT35;55849;48.482;2.332;2024-03-08T07:06:33;7.57;67.99
68842;SHT35;55849;48.482;2.332;2024-03-08T07:09:36;7.58;67.77
68842;SHT35;55849;48.482;2.332;2024-03-08T07:12:38;7.61;67.87
68842;SHT35;55849;48.482;2.332;2024-03-08T07:15:39;7.64;67.79
68842;SHT35;55849;48.482;2.332;2024-03-08T07:18:41;7.67;68.25
68842;SHT35;55849;48.482;2.332;2024-03-08T07:21:43;7.68;67.99
68842;SHT35;55849;48.482;2.332;2024-03-08T07:24:46;7.69;67.79
68842;SHT35;55849;48.482;2.332;2024-03-08T07:28:05;7.74;67.82
68842;SHT35;55849;48.482;2.332;2024-03-08T07:31:07;7.75;68.19
68842;SHT35;55849;48.482;2.332;2024-03-08T07:34:21;7.75;67.94
68842;SHT35;55849;48.482;2.332;2024-03-08T07:37:23;7.81;68.25
68842;SHT35;55849;48.482;2.332;2024-03-08T07:40:26;7.83;68.24
68842;SHT35;55849;48.482;2.332;2024-03-08T07:43:27;7.83;68.26
68842;SHT35;55849;48.482;2.332;2024-03-08T07:46:29;7.86;68.23
68842;SHT35;55849;48.482;2.332;2024-03-08T07:49:30;7.87;68.19
68842;SHT35;55849;48.482;2.332;2024-03-08T07:52:32;7.89;68.43
68842;SHT35;55849;48.482;2.332;2024-03-08T07:55:35;7.92;68.41
68842;SHT35;55849;48.482;2.332;2024-03-08T07:58:37;7.90;68.28
68842;SHT35;55849;48.482;2.332;2024-03-08T08:01:40;7.92;68.51
68842;SHT35;55849;48.482;2.332;2024-03-08T08:04:42;7.96;68.44
68842;SHT35;55849;48.482;2.332;2024-03-08T08:07:45;7.96;68.87
68842;SHT35;55849;48.482;2.332;2024-03-08T08:10:48;7.99;68.92
68842;SHT35;55849;48.482;2.332;2024-03-08T08:13:50;8.00;69.02
68842;SHT35;55849;48.482;2.332;2024-03-08T08:16:52;8.04;68.77
68842;SHT35;55849;48.482;2.332;2024-03-08T08:19:56;8.04;69.05
68842;SHT35;55849;48.482;2.332;2024-03-08T08:22:57;8.09;69.09
68842;SHT35;55849;48.482;2.332;2024-03-08T08:26:01;8.12;69.34
68842;SHT35;55849;48.482;2.332;2024-03-08T08:29:03;8.13;69.26
68842;SHT35;55849;48.482;2.332;2024-03-08T08:32:06;8.14;69.22
68842;SHT35;55849;48.482;2.332;2024-03-08T08:35:08;8.17;69.28
68842;SHT35;55849;48.482;2.332;2024-03-08T08:38:12;8.24;69.35
68842;SHT35;55849;48.482;2.332;2024-03-08T08:41:15;8.26;69.55
68842;SHT35;55849;48.482;2.332;2024-03-08T08:44:17;8.27;69.65
68842;SHT35;55849;48.482;2.332;2024-03-08T08:47:19;8.33;69.69
68842;SHT35;55849;48.482;2.332;2024-03-08T08:50:20;8.34;69.87
68842;SHT35;55849;48.482;2.332;2024-03-08T08:53:24;8.36;69.83
68842;SHT35;55849;48.482;2.332;2024-03-08T08:56:27;8.40;69.84
68842;SHT35;55849;48.482;2.332;2024-03-08T08:59:29;8.44;69.95
68842;SHT35;55849;48.482;2.332;2024-03-08T09:02:30;8.48;69.92
68842;SHT35;55849;48.482;2.332;2024-03-08T09:05:32;8.52;69.83
68842;SHT35;55849;48.482;2.332;2024-03-08T09:08:34;8.54;69.89
68842;SHT35;55849;48.482;2.332;2024-03-08T09:11:37;8.55;70.11
68842;SHT35;55849;48.482;2.332;2024-03-08T09:14:41;8.59;70.15
68842;SHT35;55849;48.482;2.332;2024-03-08T09:17:43;8.64;70.09
68842;SHT35;55849;48.482;2.332;2024-03-08T09:20:45;8.68;70.10
68842;SHT35;55849;48.482;2.332;2024-03-08T09:23:47;8.76;70.05
68842;SHT35;55849;48.482;2.332;2024-03-08T09:26:50;8.76;70.05
68842;SHT35;55849;48.482;2.332;2024-03-08T09:29:52;8.82;70.22
68842;SHT35;55849;48.482;2.332;2024-03-08T09:32:53;8.89;70.31
68842;SHT35;55849;48.482;2.332;2024-03-08T09:35:55;8.93;70.19
68842;SHT35;55849;48.482;2.332;2024-03-08T09:38:57;9.01;70.14
68842;SHT35;55849;48.482;2.332;2024-03-08T09:42:02;9.06;70.41
68842;SHT35;55849;48.482;2.332;2024-03-08T09:45:08;9.14;70.21
68842;SHT35;55849;48.482;2.332;2024-03-08T09:48:11;9.21;70.28
68842;SHT35;55849;48.482;2.332;2024-03-08T09:51:14;9.28;70.12
68842;SHT35;55849;48.482;2.332;2024-03-08T09:54:16;9.35;70.18
68842;SHT35;55849;48.482;2.332;2024-03-08T09:57:19;9.43;70.02
68842;SHT35;55849;48.482;2.332;2024-03-08T10:00:22;9.52;70.06
68842;SHT35;55849;48.482;2.332;2024-03-08T10:03:24;9.60;69.64
68842;SHT35;55849;48.482;2.332;2024-03-08T10:06:26;9.69;70.05
68842;SHT35;55849;48.482;2.332;2024-03-08T10:09:28;9.75;69.81
68842;SHT35;55849;48.482;2.332;2024-03-08T10:12:31;9.83;69.85
68842;SHT35;55849;48.482;2.332;2024-03-08T10:15:32;9.90;70.15
68842;SHT35;55849;48.482;2.332;2024-03-08T10:18:34;9.98;69.51
68842;SHT35;55849;48.482;2.332;2024-03-08T10:21:36;10.05;69.85
68842;SHT35;55849;48.482;2.332;2024-03-08T10:24:38;10.14;69.55
68842;SHT35;55849;48.482;2.332;2024-03-08T10:27:41;10.24;69.13
68842;SHT35;55849;48.482;2.332;2024-03-08T10:30:47;10.31;69.65
68842;SHT35;55849;48.482;2.332;2024-03-08T10:33:49;10.39;69.59
68842;SHT35;55849;48.482;2.332;2024-03-08T10:36:51;10.46;69.67
68842;SHT35;55849;48.482;2.332;2024-03-08T10:40:03;10.57;69.01
68842;SHT35;55849;48.482;2.332;2024-03-08T10:43:18;10.67;68.82
68842;SHT35;55849;48.482;2.332;2024-03-08T10:46:41;10.79;68.41
68842;SHT35;55849;48.482;2.332;2024-03-08T10:49:51;10.90;68.90
68842;SHT35;55849;48.482;2.332;2024-03-08T10:52:57;11.01;68.74
68842;SHT35;55849;48.482;2.332;2024-03-08T10:56:01;11.12;68.20
68842;SHT35;55849;48.482;2.332;2024-03-08T10:59:04;11.22;67.97
68842;SHT35;55849;48.482;2.332;2024-03-08T11:02:06;11.31;67.72
68842;SHT35;55849;48.482;2.332;2024-03-08T11:05:10;11.39;67.88
68842;SHT35;55849;48.482;2.332;2024-03-08T11:08:17;11.50;68.00
68842;SHT35;55849;48.482;2.332;2024-03-08T11:11:26;11.59;68.23
68842;SHT35;55849;48.482;2.332;2024-03-08T11:14:46;11.71;68.30
68842;SHT35;55849;48.482;2.332;2024-03-08T11:17:50;11.82;67.81
68842;SHT35;55849;48.482;2.332;2024-03-08T11:20:55;11.94;67.50
68842;SHT35;55849;48.482;2.332;2024-03-08T11:23:59;12.01;67.59
68842;SHT35;55849;48.482;2.332;2024-03-08T11:27:03;12.12;66.58
68842;SHT35;55849;48.482;2.332;2024-03-08T11:30:07;12.21;66.52
68842;SHT35;55849;48.482;2.332;2024-03-08T11:33:16;12.29;66.98
68842;SHT35;55849;48.482;2.332;2024-03-08T11:36:22;12.40;67.15
68842;SHT35;55849;48.482;2.332;2024-03-08T11:39:25;12.51;67.10
68842;SHT35;55849;48.482;2.332;2024-03-08T11:42:28;12.61;66.64
68842;SHT35;55849;48.482;2.332;2024-03-08T11:45:32;12.75;66.12
68842;SHT35;55849;48.482;2.332;2024-03-08T11:48:36;12.83;66.04
68842;SHT35;55849;48.482;2.332;2024-03-08T11:51:38;12.92;66.09
68842;SHT35;55849;48.482;2.332;2024-03-08T11:54:40;13.03;65.31
68842;SHT35;55849;48.482;2.332;2024-03-08T11:57:41;13.13;65.26
68842;SHT35;55849;48.482;2.332;2024-03-08T12:00:45;13.22;64.88
68842;SHT35;55849;48.482;2.332;2024-03-08T12:03:52;13.32;64.78
68842;SHT35;55849;48.482;2.332;2024-03-08T12:06:54;13.39;64.26
68842;SHT35;55849;48.482;2.332;2024-03-08T12:10:14;13.50;64.29
68842;SHT35;55849;48.482;2.332;2024-03-08T12:13:17;13.61;64.08
68842;SHT35;55849;48.482;2.332;2024-03-08T12:16:20;13.75;63.80
68842;SHT35;55849;48.482;2.332;2024-03-08T12:19:22;13.86;63.60
68842;SHT35;55849;48.482;2.332;2024-03-08T12:22:25;13.96;62.48
68842;SHT35;55849;48.482;2.332;2024-03-08T12:25:27;14.09;62.23
68842;SHT35;55849;48.482;2.332;2024-03-08T12:28:30;14.19;62.63
68842;SHT35;55849;48.482;2.332;2024-03-08T12:31:33;14.27;62.24
68842;SHT35;55849;48.482;2.332;2024-03-08T12:34:36;14.36;62.03
68842;SHT35;55849;48.482;2.332;2024-03-08T12:37:37;14.40;62.38
68842;SHT35;55849;48.482;2.332;2024-03-08T12:40:40;14.45;61.57
68842;SHT35;55849;48.482;2.332;2024-03-08T12:43:42;14.54;61.71
68842;SHT35;55849;48.482;2.332;2024-03-08T12:46:50;14.61;60.93
68842;SHT35;55849;48.482;2.332;2024-03-08T12:49:51;14.68;61.39
68842;SHT35;55849;48.482;2.332;2024-03-08T12:52:54;14.72;61.44
68842;SHT35;55849;48.482;2.332;2024-03-08T12:55:56;14.85;60.42
68842;SHT35;55849;48.482;2.332;2024-03-08T12:58:57;14.93;60.38
68842;SHT35;55849;48.482;2.332;2024-03-08T13:02:00;14.98;60.35
68842;SHT35;55849;48.482;2.332;2024-03-08T13:05:02;15.03;60.90
68842;SHT35;55849;48.482;2.332;2024-03-08T13:08:05;15.09;60.46
68842;SHT35;55849;48.482;2.332;2024-03-08T13:11:12;15.11;60.69
68842;SHT35;55849;48.482;2.332;2024-03-08T13:14:14;15.14;60.36
68842;SHT35;55849;48.482;2.332;2024-03-08T13:17:18;15.17;60.20
68842;SHT35;55849;48.482;2.332;2024-03-08T13:20:19;15.16;60.39
68842;SHT35;55849;48.482;2.332;2024-03-08T13:23:23;15.17;60.13
68842;SHT35;55849;48.482;2.332;2024-03-08T13:26:25;15.17;60.19
68842;SHT35;55849;48.482;2.332;2024-03-08T13:29:32;15.20;60.45
68842;SHT35;55849;48.482;2.332;2024-03-08T13:32:35;15.28;60.35
68842;SHT35;55849;48.482;2.332;2024-03-08T13:35:39;15.38;60.25
68842;SHT35;55849;48.482;2.332;2024-03-08T13:38:42;15.48;60.18
68842;SHT35;55849;48.482;2.332;2024-03-08T13:41:44;15.58;60.07
68842;SHT35;55849;48.482;2.332;2024-03-08T13:44:46;15.68;59.72
68842;SHT35;55849;48.482;2.332;2024-03-08T13:47:49;15.82;59.81
68842;SHT35;55849;48.482;2.332;2024-03-08T13:50:51;15.93;59.57
68842;SHT35;55849;48.482;2.332;2024-03-08T13:53:53;16.10;59.55
68842;SHT35;55849;48.482;2.332;2024-03-08T13:56:54;16.25;59.68
68842;SHT35;55849;48.482;2.332;2024-03-08T13:59:56;16.45;59.03
68842;SHT35;55849;48.482;2.332;2024-03-08T14:02:59;16.65;58.53
68842;SHT35;55849;48.482;2.332;2024-03-08T14:06:01;16.83;58.46
68842;SHT35;55849;48.482;2.332;2024-03-08T14:09:04;17.03;57.95
68842;SHT35;55849;48.482;2.332;2024-03-08T14:12:08;17.25;56.94
68842;SHT35;55849;48.482;2.332;2024-03-08T14:15:09;17.45;55.85
68842;SHT35;55849;48.482;2.332;2024-03-08T14:18:14;17.65;56.48
68842;SHT35;55849;48.482;2.332;2024-03-08T14:21:15;17.84;55.55
68842;SHT35;55849;48.482;2.332;2024-03-08T14:24:17;18.01;55.29
68842;SHT35;55849;48.482;2.332;2024-03-08T14:27:19;18.19;55.36
68842;SHT35;55849;48.482;2.332;2024-03-08T14:30:20;18.35;55.13
68842;SHT35;55849;48.482;2.332;2024-03-08T14:33:36;18.52;54.29
68842;SHT35;55849;48.482;2.332;2024-03-08T14:36:38;18.57;54.01
68842;SHT35;55849;48.482;2.332;2024-03-08T14:39:39;18.57;53.12
68842;SHT35;55849;48.482;2.332;2024-03-08T14:42:41;18.46;53.21
68842;SHT35;55849;48.482;2.332;2024-03-08T14:45:44;18.38;53.50
68842;SHT35;55849;48.482;2.332;2024-03-08T14:48:49;18.24;53.78
68842;SHT35;55849;48.482;2.332;2024-03-08T14:51:51;18.12;54.32
68842;SHT35;55849;48.482;2.332;2024-03-08T14:54:54;18.08;54.54
68842;SHT35;55849;48.482;2.332;2024-03-08T14:57:56;18.02;54.34
68842;SHT35;55849;48.482;2.332;2024-03-08T15:00:57;17.96;54.46
68842;SHT35;55849;48.482;2.332;2024-03-08T15:04:02;17.90;54.53
68842;SHT35;55849;48.482;2.332;2024-03-08T15:07:10;17.91;54.43
68842;SHT35;55849;48.482;2.332;2024-03-08T15:10:12;18.00;53.88
68842;SHT35;55849;48.482;2.332;2024-03-08T15:13:14;18.18;54.66
68842;SHT35;55849;48.482;2.332;2024-03-08T15:16:21;18.32;54.04
68842;SHT35;55849;48.482;2.332;2024-03-08T15:19:25;18.41;53.53
68842;SHT35;55849;48.482;2.332;2024-03-08T15:22:28;18.41;53.00
68842;SHT35;55849;48.482;2.332;2024-03-08T15:25:29;18.39;52.88
68842;SHT35;55849;48.482;2.332;2024-03-08T15:28:31;18.43;53.63
68842;SHT35;55849;48.482;2.332;2024-03-08T15:31:37;18.48;53.55
68842;SHT35;55849;48.482;2.332;2024-03-08T15:34:43;18.46;52.92
68842;SHT35;55849;48.482;2.332;2024-03-08T15:37:45;18.45;53.02
68842;SHT35;55849;48.482;2.332;2024-03-08T15:40:46;18.41;52.63
68842;SHT35;55849;48.482;2.332;2024-03-08T15:43:50;18.33;52.69
68842;SHT35;55849;48.482;2.332;2024-03-08T15:46:51;18.28;53.52
68842;SHT35;55849;48.482;2.332;2024-03-08T15:49:54;18.25;53.66
68842;SHT35;55849;48.482;2.332;2024-03-08T15:52:56;18.19;52.93
68842;SHT35;55849;48.482;2.332;2024-03-08T15:55:59;18.11;52.49
68842;SHT35;55849;48.482;2.332;2024-03-08T15:59:03;18.00;52.31
68842;SHT35;55849;48.482;2.332;2024-03-08T16:02:06;17.91;52.59
68842;SHT35;55849;48.482;2.332;2024-03-08T16:05:09;17.87;52.70
68842;SHT35;55849;48.482;2.332;2024-03-08T16:08:12;17.84;53.61
68842;SHT35;55849;48.482;2.332;2024-03-08T16:11:17;17.89;52.68
68842;SHT35;55849;48.482;2.332;2024-03-08T16:14:19;17.91;52.59
68842;SHT35;55849;48.482;2.332;2024-03-08T16:17:20;17.84;52.63
68842;SHT35;55849;48.482;2.332;2024-03-08T16:20:25;17.70;52.63
68842;SHT35;55849;48.482;2.332;2024-03-08T16:23:27;17.59;52.72
68842;SHT35;55849;48.482;2.332;2024-03-08T16:26:28;17.43;52.07
68842;SHT35;55849;48.482;2.332;2024-03-08T16:29:35;17.28;52.76
68842;SHT35;55849;48.482;2.332;2024-03-08T16:32:36;17.14;52.38
68842;SHT35;55849;48.482;2.332;2024-03-08T16:35:40;17.02;52.99
68842;SHT35;55849;48.482;2.332;2024-03-08T16:38:44;16.91;52.82
68842;SHT35;55849;48.482;2.332;2024-03-08T16:41:46;16.77;53.36
68842;SHT35;55849;48.482;2.332;2024-03-08T16:44:50;16.68;53.55
68842;SHT35;55849;48.482;2.332;2024-03-08T16:47:51;16.59;53.68
68842;SHT35;55849;48.482;2.332;2024-03-08T16:50:55;16.47;54.11
68842;SHT35;55849;48.482;2.332;2024-03-08T16:53:57;16.38;54.59
68842;SHT35;55849;48.482;2.332;2024-03-08T16:56:58;16.29;54.77
68842;SHT35;55849;48.482;2.332;2024-03-08T17:00:00;16.17;54.57
68842;SHT35;55849;48.482;2.332;2024-03-08T17:03:06;16.10;54.90
68842;SHT35;55849;48.482;2.332;2024-03-08T17:06:09;16.04;55.18
68842;SHT35;55849;48.482;2.332;2024-03-08T17:09:11;15.96;55.62
68842;SHT35;55849;48.482;2.332;2024-03-08T17:12:13;15.87;55.49
68842;SHT35;55849;48.482;2.332;2024-03-08T17:15:19;15.79;55.69
68842;SHT35;55849;48.482;2.332;2024-03-08T17:18:22;15.72;56.16
68842;SHT35;55849;48.482;2.332;2024-03-08T17:21:24;15.65;56.77
68842;SHT35;55849;48.482;2.332;2024-03-08T17:24:27;15.57;56.50
68842;SHT35;55849;48.482;2.332;2024-03-08T17:27:29;15.51;56.58
68842;SHT35;55849;48.482;2.332;2024-03-08T17:30:32;15.44;57.40
68842;SHT35;55849;48.482;2.332;2024-03-08T17:33:38;15.35;57.73
68842;SHT35;55849;48.482;2.332;2024-03-08T17:36:43;15.27;57.70
68842;SHT35;55849;48.482;2.332;2024-03-08T17:39:45;15.23;57.44
68842;SHT35;55849;48.482;2.332;2024-03-08T17:42:47;15.16;58.05
68842;SHT35;55849;48.482;2.332;2024-03-08T17:45:49;15.10;58.25
68842;SHT35;55849;48.482;2.332;2024-03-08T17:48:53;15.07;58.42
68842;SHT35;55849;48.482;2.332;2024-03-08T17:51:56;14.98;58.26
68842;SHT35;55849;48.482;2.332;2024-03-08T17:55:03;14.92;57.48
68842;SHT35;55849;48.482;2.332;2024-03-08T17:58:04;14.86;57.88
68842;SHT35;55849;48.482;2.332;2024-03-08T18:01:07;14.78;56.75
68842;SHT35;55849;48.482;2.332;2024-03-08T18:04:12;14.75;56.48
68842;SHT35;55849;48.482;2.332;2024-03-08T18:07:15;14.71;56.77
68842;SHT35;55849;48.482;2.332;2024-03-08T18:10:16;14.68;57.40
68842;SHT35;55849;48.482;2.332;2024-03-08T18:13:20;14.61;56.97
68842;SHT35;55849;48.482;2.332;2024-03-08T18:16:22;14.55;57.40
68842;SHT35;55849;48.482;2.332;2024-03-08T18:19:24;14.52;57.54
68842;SHT35;55849;48.482;2.332;2024-03-08T18:22:26;14.45;57.87
68842;SHT35;55849;48.482;2.332;2024-03-08T18:25:29;14.41;57.93
68842;SHT35;55849;48.482;2.332;2024-03-08T18:28:31;14.38;58.17
68842;SHT35;55849;48.482;2.332;2024-03-08T18:31:32;14.33;58.32
68842;SHT35;55849;48.482;2.332;2024-03-08T18:34:35;14.33;58.47
68842;SHT35;55849;48.482;2.332;2024-03-08T18:37:44;14.26;58.74
68842;SHT35;55849;48.482;2.332;2024-03-08T18:40:47;14.24;58.79
68842;SHT35;55849;48.482;2.332;2024-03-08T18:43:48;14.17;59.10
68842;SHT35;55849;48.482;2.332;2024-03-08T18:46:50;14.19;58.78
68842;SHT35;55849;48.482;2.332;2024-03-08T18:49:56;14.12;58.72
68842;SHT35;55849;48.482;2.332;2024-03-08T18:53:00;14.10;58.82
68842;SHT35;55849;48.482;2.332;2024-03-08T18:56:02;14.08;59.08
68842;SHT35;55849;48.482;2.332;2024-03-08T18:59:04;14.03;58.69
68842;SHT35;55849;48.482;2.332;2024-03-08T19:02:09;14.01;58.92
68842;SHT35;55849;48.482;2.332;2024-03-08T19:05:14;14.01;58.61
68842;SHT35;55849;48.482;2.332;2024-03-08T19:08:18;13.98;58.49
68842;SHT35;55849;48.482;2.332;2024-03-08T19:11:22;13.92;58.37
68842;SHT35;55849;48.482;2.332;2024-03-08T19:14:23;13.90;58.64
68842;SHT35;55849;48.482;2.332;2024-03-08T19:17:25;13.89;58.66
68842;SHT35;55849;48.482;2.332;2024-03-08T19:20:28;13.86;58.69
68842;SHT35;55849;48.482;2.332;2024-03-08T19:23:35;13.85;58.49
68842;SHT35;55849;48.482;2.332;2024-03-08T19:26:36;13.82;58.56